Time;durP1;ratioP1;P1;durP2;ratioP2;P2;SDS_P1;SDS_P2;PMS_P1;PMS_P2;Temp;Humidity;BMP_temperature;BMP_pressure;BME280_temperature;BME280_humidity;BME280_pressure;Samples;Min_cycle;Max_cycle;Signal;HPM_P1;HPM_P2
2022/02/02 00:05:11;;;;;;;7.45;2.80;;;17.50;55.00;;;;;;5072653;28;20192;-60
2022/02/02 00:07:49;;;;;;;7.20;2.92;;;17.50;55.00;;;;;;5072779;28;20234;-60
2022/02/02 00:10:51;;;;;;;8.50;3.22;;;17.50;55.00;;;;;;5071611;28;20743;-61
2022/02/02 00:13:11;;;;;;;8.77;3.35;;;17.50;55.00;;;;;;5070184;28;20610;-62
2022/02/02 00:16:08;;;;;;;8.02;3.22;;;17.40;55.00;;;;;;5072849;28;20198;-62
2022/02/02 00:20:58;;;;;;;7.53;2.88;;;17.40;55.00;;;;;;5072625;28;20224;-61
2022/02/02 00:23:30;;;;;;;7.53;2.90;;;17.40;55.00;;;;;;5072118;28;20174;-60
2022/02/02 00:26:02;;;;;;;8.95;3.40;;;17.40;55.00;;;;;;5072272;28;20756;-60
2022/02/02 00:28:35;;;;;;;7.18;3.17;;;17.40;55.00;;;;;;5072637;28;20178;-60
2022/02/02 00:31:05;;;;;;;5.65;2.97;;;17.40;55.00;;;;;;5075020;28;20194;-60
2022/02/02 00:33:37;;;;;;;7.07;2.78;;;17.40;55.00;;;;;;5076313;28;20609;-60
2022/02/02 00:36:14;;;;;;;8.20;3.17;;;17.40;55.00;;;;;;5076235;28;20185;-61
2022/02/02 00:38:39;;;;;;;8.70;3.55;;;17.30;55.00;;;;;;5075829;28;20182;-60
2022/02/02 00:41:05;;;;;;;8.20;2.80;;;17.30;55.00;;;;;;5075914;28;20178;-60
2022/02/02 00:43:30;;;;;;;8.40;3.47;;;17.30;55.00;;;;;;5076190;28;20185;-60
2022/02/02 00:45:56;;;;;;;10.18;4.05;;;17.30;55.00;;;;;;5075359;28;20513;-61
2022/02/02 00:48:26;;;;;;;9.40;3.13;;;17.30;55.10;;;;;;5076265;28;20540;-60
2022/02/02 00:50:52;;;;;;;7.40;3.08;;;17.30;55.10;;;;;;5076196;28;20618;-61
2022/02/02 00:53:17;;;;;;;8.02;3.80;;;17.30;55.10;;;;;;5074947;28;20240;-62
2022/02/02 00:55:43;;;;;;;8.73;3.08;;;17.30;55.10;;;;;;5076054;28;20181;-61
2022/02/02 00:58:09;;;;;;;6.72;3.15;;;17.20;55.00;;;;;;5075194;28;20508;-60
2022/02/02 01:00:35;;;;;;;7.75;3.17;;;17.20;55.00;;;;;;5075780;28;20170;-61
2022/02/02 01:03:00;;;;;;;8.65;3.22;;;17.20;55.10;;;;;;5075681;28;20178;-59
2022/02/02 01:05:26;;;;;;;9.23;3.47;;;17.20;55.00;;;;;;5075093;28;20232;-59
2022/02/02 01:10:44;;;;;;;9.43;3.17;;;17.20;55.00;;;;;;5075824;28;20162;-63
2022/02/02 01:21:28;;;;;;;5.70;2.72;;;17.10;55.00;;;;;;5074656;28;20231;-60
2022/02/02 01:29:22;;;;;;;7.60;3.28;;;17.10;55.00;;;;;;5075514;28;20235;-60
2022/02/02 01:31:47;;;;;;;8.63;3.55;;;17.10;55.00;;;;;;5075309;28;20625;-60
2022/02/02 01:34:13;;;;;;;7.80;3.03;;;17.10;55.00;;;;;;5074320;28;20210;-60
2022/02/02 01:36:40;;;;;;;7.80;3.78;;;17.10;55.10;;;;;;5075448;28;20181;-60
2022/02/02 01:39:07;;;;;;;8.77;3.72;;;17.10;55.10;;;;;;5075081;28;20649;-60
2022/02/02 01:41:34;;;;;;;7.68;2.90;;;17.10;55.00;;;;;;5073805;28;20590;-60
2022/02/02 01:44:14;;;;;;;8.57;3.25;;;17.10;55.10;;;;;;5075057;28;20182;-60
2022/02/02 01:46:41;;;;;;;8.75;3.40;;;17.10;55.10;;;;;;5075219;28;20200;-59
2022/02/02 01:57:26;;;;;;;11.18;3.95;;;17.00;55.00;;;;;;5074737;28;20242;-60
2022/02/02 01:59:52;;;;;;;8.93;3.47;;;17.00;55.10;;;;;;5074933;28;20182;-60
2022/02/02 02:02:21;;;;;;;10.00;3.67;;;17.00;55.10;;;;;;5074042;28;20175;-59
2022/02/02 02:04:46;;;;;;;9.23;3.78;;;17.00;55.10;;;;;;5074943;28;20601;-59
2022/02/02 02:07:12;;;;;;;8.35;3.70;;;17.00;55.00;;;;;;5074485;28;20657;-59
2022/02/02 02:09:37;;;;;;;7.78;3.30;;;17.00;55.10;;;;;;5074075;28;20185;-60
2022/02/02 02:12:07;;;;;;;10.02;3.92;;;17.00;55.00;;;;;;5074373;28;20198;-61
2022/02/02 02:14:52;;;;;;;9.95;3.83;;;16.90;55.00;;;;;;5074707;28;20210;-61
2022/02/02 02:17:18;;;;;;;10.40;4.43;;;16.90;55.00;;;;;;5074065;28;20167;-61
2022/02/02 02:19:48;;;;;;;9.13;3.63;;;16.90;55.00;;;;;;5074694;28;20540;-61
2022/02/02 02:22:18;;;;;;;9.75;3.42;;;16.90;55.10;;;;;;5074391;28;20178;-60
2022/02/02 02:24:44;;;;;;;9.52;3.10;;;16.90;55.00;;;;;;5073671;28;20182;-60
2022/02/02 02:27:13;;;;;;;9.00;3.95;;;16.90;55.10;;;;;;5073946;28;20629;-60
2022/02/02 02:32:47;;;;;;;8.00;3.72;;;16.90;55.00;;;;;;5074277;28;20181;-60
2022/02/02 02:57:15;;;;;;;6.65;3.08;;;16.80;55.00;;;;;;5073466;28;20556;-60
2022/02/02 03:00:18;;;;;;;10.10;4.07;;;16.80;55.00;;;;;;5073153;28;20182;-61
2022/02/02 03:34:57;;;;;;;9.20;3.53;;;16.70;55.00;;;;;;5071726;28;20592;-60
2022/02/02 03:49:26;;;;;;;9.40;4.07;;;16.70;55.00;;;;;;5071311;28;20538;-59
2022/02/02 03:54:29;;;;;;;10.80;3.35;;;16.70;55.00;;;;;;5071977;28;20628;-60
2022/02/02 04:02:11;;;;;;;11.02;4.30;;;16.60;55.00;;;;;;5070987;28;20253;-60
2022/02/02 04:04:55;;;;;;;10.18;3.72;;;16.60;55.00;;;;;;5071580;28;20201;-59
2022/02/02 04:09:48;;;;;;;9.05;3.70;;;16.60;55.00;;;;;;5070975;28;20250;-61
2022/02/02 04:12:27;;;;;;;11.70;4.18;;;16.60;55.00;;;;;;5071739;28;20324;-61
2022/02/02 04:51:19;;;;;;;8.75;4.07;;;16.50;54.90;;;;;;5071085;28;20312;-60
2022/02/02 04:55:49;;;;;;;6.22;3.45;;;16.50;54.90;;;;;;5071284;28;20319;-62
2022/02/02 05:01:45;;;;;;;8.27;3.83;;;16.50;55.00;;;;;;5070694;28;20205;-60
2022/02/02 05:09:41;;;;;;;6.80;3.10;;;16.40;54.90;;;;;;5071147;28;20173;-61
2022/02/02 05:20:22;;;;;;;8.40;3.67;;;16.40;54.90;;;;;;5073720;28;20170;-62
2022/02/02 05:23:47;;;;;;;9.23;3.72;;;16.40;54.90;;;;;;5074294;28;20182;-60
2022/02/02 05:45:35;;;;;;;8.48;3.75;;;16.40;54.90;;;;;;5074198;28;20292;-59
2022/02/02 05:50:36;;;;;;;8.23;3.08;;;16.40;54.90;;;;;;5073652;28;20251;-60
2022/02/02 05:53:02;;;;;;;7.32;3.10;;;16.40;54.90;;;;;;5073417;28;20226;-60
2022/02/02 05:55:32;;;;;;;8.23;2.88;;;16.30;54.90;;;;;;5072952;28;20277;-61
2022/02/02 05:57:58;;;;;;;8.85;3.72;;;16.30;55.00;;;;;;5055877;28;20661;-60
2022/02/02 06:00:23;;;;;;;6.13;3.45;;;16.30;55.00;;;;;;5038960;28;20187;-59
2022/02/02 06:02:49;;;;;;;7.50;3.08;;;16.30;54.90;;;;;;5073534;28;20179;-59
2022/02/02 06:05:14;;;;;;;8.60;2.92;;;16.30;55.00;;;;;;5055595;28;20291;-59
2022/02/02 06:07:42;;;;;;;8.77;3.22;;;16.30;55.00;;;;;;5072833;28;20190;-60
2022/02/02 06:10:09;;;;;;;7.00;3.35;;;16.30;54.90;;;;;;5073422;28;20261;-61
2022/02/02 06:12:34;;;;;;;7.22;3.45;;;16.30;55.00;;;;;;5073471;28;20263;-61
2022/02/02 06:15:07;;;;;;;7.65;2.90;;;16.30;55.00;;;;;;5072219;28;20187;-61
2022/02/02 06:17:32;;;;;;;5.97;3.13;;;16.30;55.00;;;;;;5073643;28;20170;-61
2022/02/02 06:19:58;;;;;;;8.23;3.78;;;16.20;54.90;;;;;;5038704;28;20173;-60
2022/02/02 06:22:25;;;;;;;8.55;3.53;;;16.30;55.00;;;;;;5072539;28;20170;-59
2022/02/02 06:25:05;;;;;;;9.32;3.10;;;16.30;54.90;;;;;;5039168;28;20235;-60
2022/02/02 06:27:33;;;;;;;7.25;2.92;;;16.20;54.90;;;;;;5055162;28;20182;-59
2022/02/02 06:30:06;;;;;;;5.95;2.50;;;16.30;55.00;;;;;;5054890;28;20253;-59
2022/02/02 06:32:41;;;;;;;7.57;2.70;;;16.20;54.90;;;;;;5073225;28;20219;-59
2022/02/02 06:35:07;;;;;;;7.22;2.97;;;16.30;55.00;;;;;;5072603;28;20702;-59
2022/02/02 06:37:32;;;;;;;8.18;3.20;;;16.20;55.00;;;;;;5072145;28;20171;-59
2022/02/02 06:39:58;;;;;;;7.03;2.92;;;16.20;55.00;;;;;;5072741;28;20174;-59
2022/02/02 06:42:23;;;;;;;7.60;2.85;;;16.30;55.00;;;;;;5073301;28;20284;-60
2022/02/02 06:44:49;;;;;;;6.93;3.05;;;16.20;55.00;;;;;;5072284;28;20179;-59
2022/02/02 06:47:15;;;;;;;7.43;3.13;;;16.20;55.00;;;;;;5072648;28;20171;-59
2022/02/02 06:49:44;;;;;;;6.18;2.67;;;16.20;55.00;;;;;;5054143;28;20193;-59
2022/02/02 06:52:19;;;;;;;7.13;3.25;;;16.20;55.00;;;;;;5072480;28;20228;-59
2022/02/02 06:54:55;;;;;;;6.22;3.00;;;16.20;55.00;;;;;;5039759;28;20220;-60
2022/02/02 06:57:45;;;;;;;8.73;3.70;;;16.20;55.00;;;;;;5054436;28;20187;-60
2022/02/02 07:08:26;;;;;;;6.97;3.00;;;16.20;55.00;;;;;;5039666;28;20185;-59
2022/02/02 07:11:16;;;;;;;7.15;2.80;;;16.20;54.90;;;;;;5071617;28;20178;-61
2022/02/02 07:18:56;;;;;;;5.82;2.60;;;16.30;54.80;;;;;;5071621;28;20182;-60
2022/02/02 07:21:43;;;;;;;8.00;3.30;;;16.30;54.90;;;;;;5072129;28;20167;-59
2022/02/02 07:24:52;;;;;;;6.53;2.72;;;16.30;54.90;;;;;;5071978;28;20182;-59
2022/02/02 07:33:08;;;;;;;6.78;2.90;;;16.30;54.90;;;;;;5009026;28;20204;-59
2022/02/02 07:35:49;;;;;;;6.60;2.88;;;16.30;54.90;;;;;;5010123;28;20212;-59
2022/02/02 07:38:16;;;;;;;6.72;2.88;;;16.30;54.90;;;;;;5050012;28;20577;-59
2022/02/02 07:40:44;;;;;;;7.15;2.75;;;16.40;54.90;;;;;;5036580;28;20189;-59
2022/02/02 07:43:17;;;;;;;5.72;2.72;;;16.50;54.80;;;;;;5071799;28;20182;-59
2022/02/02 07:45:43;;;;;;;5.95;2.47;;;16.50;54.70;;;;;;5038192;28;20257;-59
2022/02/02 07:48:10;;;;;;;4.85;2.38;;;16.60;54.60;;;;;;5070779;28;20308;-59
2022/02/02 07:50:36;;;;;;;5.40;2.55;;;16.60;54.50;;;;;;5054192;28;20182;-59
2022/02/02 07:53:11;;;;;;;4.55;2.70;;;16.70;54.60;;;;;;5070544;28;20238;-60
2022/02/02 07:55:38;;;;;;;5.10;2.45;;;16.80;54.50;;;;;;5071695;28;20649;-61
2022/02/02 07:58:06;;;;;;;4.90;2.55;;;16.90;54.30;;;;;;5071326;28;20182;-59
2022/02/02 08:00:32;;;;;;;7.40;2.67;;;17.10;54.10;;;;;;5071160;28;20194;-60
2022/02/02 08:03:05;;;;;;;4.18;2.35;;;17.20;53.80;;;;;;5071371;28;20220;-59
2022/02/02 08:05:33;;;;;;;5.60;2.67;;;17.50;54.20;;;;;;5071702;28;20256;-59
2022/02/02 08:08:11;;;;;;;4.10;2.15;;;17.70;53.30;;;;;;5053212;28;20176;-66
2022/02/02 08:10:38;;;;;;;5.28;1.98;;;17.90;53.00;;;;;;5071798;28;20261;-62
2022/02/02 08:13:16;;;;;;;6.28;2.60;;;18.10;52.70;;;;;;5071461;28;20209;-62
2022/02/02 08:15:42;;;;;;;6.55;2.55;;;18.10;52.70;;;;;;5071159;28;20631;-62
2022/02/02 08:18:07;;;;;;;6.30;2.45;;;18.30;52.50;;;;;;5071505;28;20178;-67
2022/02/02 08:20:33;;;;;;;6.65;2.80;;;18.30;52.30;;;;;;5072100;28;20194;-61
2022/02/02 08:22:58;;;;;;;7.30;3.15;;;18.40;52.90;;;;;;5070813;28;20668;-61
2022/02/02 08:25:32;;;;;;;6.38;2.60;;;18.40;52.90;;;;;;5071659;28;20179;-60
2022/02/02 08:28:03;;;;;;;7.18;3.22;;;18.60;53.00;;;;;;5071542;28;20353;-60
2022/02/02 08:30:29;;;;;;;6.25;2.72;;;18.50;53.00;;;;;;5071276;28;20179;-61
2022/02/02 08:32:59;;;;;;;5.50;2.58;;;18.50;53.00;;;;;;5071419;28;20256;-62
2022/02/02 08:35:26;;;;;;;7.78;3.03;;;18.50;53.10;;;;;;5070692;28;20175;-61
2022/02/02 08:38:04;;;;;;;6.30;2.50;;;18.40;53.10;;;;;;5071610;28;20203;-64
2022/02/02 08:40:42;;;;;;;7.55;3.38;;;18.40;53.30;;;;;;5071485;28;20548;-64
2022/02/02 08:43:14;;;;;;;6.72;2.80;;;18.40;53.30;;;;;;5070713;28;20174;-68
2022/02/02 08:45:42;;;;;;;8.45;2.60;;;18.40;53.40;;;;;;5071832;28;20259;-69
2022/02/02 08:48:10;;;;;;;9.02;3.30;;;18.40;53.50;;;;;;5071515;28;20186;-68
2022/02/02 08:50:53;;;;;;;9.95;3.03;;;18.50;53.70;;;;;;5070772;28;20231;-69
2022/02/02 08:58:43;;;;;;;7.75;3.00;;;18.50;53.80;;;;;;5074678;28;20636;-70
2022/02/02 09:01:14;;;;;;;6.68;2.50;;;18.50;53.90;;;;;;5074953;28;20622;-70
2022/02/02 09:06:24;;;;;;;6.88;2.92;;;18.50;53.80;;;;;;5075250;28;20303;-67
2022/02/02 09:08:58;;;;;;;9.02;2.60;;;18.50;54.00;;;;;;5075207;28;20186;-68
2022/02/02 09:25:07;;;;;;;5.68;2.17;;;18.50;54.00;;;;;;5074031;28;20162;-67
2022/02/02 09:35:35;;;;;;;6.57;2.80;;;18.50;54.00;;;;;;5074979;28;20173;-71
2022/02/02 09:38:02;;;;;;;5.93;2.45;;;18.40;54.00;;;;;;5074271;28;20506;-70
2022/02/02 09:43:25;;;;;;;7.82;2.70;;;18.40;54.10;;;;;;5059736;28;20186;-70
2022/02/02 09:45:57;;;;;;;5.95;2.30;;;18.40;54.10;;;;;;5074074;28;20243;-70
2022/02/02 09:48:34;;;;;;;7.30;3.05;;;18.20;54.20;;;;;;5074963;28;20179;-69
2022/02/02 09:51:08;;;;;;;4.80;2.58;;;18.20;54.30;;;;;;5074179;28;20178;-70
2022/02/02 09:53:36;;;;;;;4.10;2.25;;;18.20;54.50;;;;;;5073598;28;20693;-70
2022/02/02 09:56:17;;;;;;;5.43;2.10;;;18.20;54.50;;;;;;5074016;28;20536;-69
2022/02/02 10:04:15;;;;;;;7.53;3.00;;;18.20;55.10;;;;;;5073668;28;20198;-70
2022/02/02 10:07:00;;;;;;;6.10;2.47;;;18.20;54.50;;;;;;5073525;28;20220;-69
2022/02/02 10:10:18;;;;;;;4.55;2.35;;;18.20;54.60;;;;;;5074230;28;20174;-69
2022/02/02 10:12:44;;;;;;;7.20;2.83;;;18.20;54.60;;;;;;5065453;28;20186;-69
2022/02/02 10:15:16;;;;;;;3.78;2.17;;;18.20;54.50;;;;;;5072960;28;20186;-69
2022/02/02 10:17:43;;;;;;;5.10;2.03;;;18.30;54.50;;;;;;5073786;28;20501;-69
2022/02/02 10:20:22;;;;;;;7.25;2.63;;;18.30;54.40;;;;;;5073332;28;20653;-69
2022/02/02 10:22:49;;;;;;;3.75;2.28;;;18.20;54.30;;;;;;5073403;28;20190;-68
2022/02/02 10:25:37;;;;;;;6.45;2.45;;;18.20;54.40;;;;;;5073733;28;20270;-69
2022/02/02 10:28:12;;;;;;;4.38;2.45;;;18.20;54.30;;;;;;5072995;28;20185;-69
2022/02/02 10:30:40;;;;;;;5.65;2.20;;;18.20;54.20;;;;;;5073850;28;20240;-70
2022/02/02 10:33:10;;;;;;;4.32;2.10;;;18.20;54.30;;;;;;5073339;28;20217;-71
2022/02/02 10:35:40;;;;;;;4.43;2.30;;;18.20;54.40;;;;;;5055750;28;20178;-71
2022/02/02 10:38:11;;;;;;;4.45;2.10;;;18.20;54.40;;;;;;5073206;28;20262;-71
2022/02/02 10:43:28;;;;;;;9.50;3.17;;;18.20;54.60;;;;;;5072453;28;20197;-71
2022/02/02 10:45:54;;;;;;;5.88;3.10;;;18.20;54.60;;;;;;5073399;28;20175;-69
2022/02/02 10:48:38;;;;;;;5.95;2.80;;;18.30;54.50;;;;;;5055572;28;20580;-70
2022/02/02 10:51:18;;;;;;;5.57;2.63;;;18.30;54.40;;;;;;5072029;28;20311;-72
2022/02/02 11:06:55;;;;;;;6.65;2.65;;;18.00;54.60;;;;;;5072898;28;20619;-69
2022/02/02 11:09:21;;;;;;;6.68;2.58;;;18.00;54.60;;;;;;5072990;28;20261;-69
2022/02/02 11:11:50;;;;;;;8.77;2.60;;;18.00;54.70;;;;;;5072117;28;20178;-69
2022/02/02 11:14:19;;;;;;;5.38;2.42;;;17.90;54.60;;;;;;5071620;28;20222;-69
2022/02/02 11:16:51;;;;;;;5.40;2.80;;;17.90;54.70;;;;;;5072880;28;20179;-69
2022/02/02 11:19:17;;;;;;;9.23;3.15;;;18.00;54.70;;;;;;5037813;28;20544;-69
2022/02/02 11:21:42;;;;;;;7.97;2.70;;;18.00;54.50;;;;;;5054318;28;20755;-68
2022/02/02 11:24:15;;;;;;;5.60;2.53;;;18.00;54.40;;;;;;5071104;28;20273;-68
2022/02/02 11:26:45;;;;;;;4.32;2.22;;;18.00;54.40;;;;;;5071894;28;20178;-68
2022/02/02 11:29:36;;;;;;;8.52;2.85;;;18.00;54.50;;;;;;5071459;28;20231;-66
2022/02/02 11:32:10;;;;;;;5.05;3.03;;;18.00;54.40;;;;;;5071079;28;20193;-72
2022/02/02 11:34:35;;;;;;;10.27;4.22;;;18.00;54.60;;;;;;5071158;28;20435;-70
2022/02/02 11:37:03;;;;;;;8.10;3.38;;;18.00;54.60;;;;;;5071791;28;20178;-69
2022/02/02 11:39:41;;;;;;;10.55;3.60;;;18.10;54.50;;;;;;5071379;28;20182;-72
2022/02/02 11:42:18;;;;;;;9.13;3.00;;;18.10;54.40;;;;;;5071576;28;20641;-71
2022/02/02 11:45:01;;;;;;;7.20;3.20;;;18.20;54.30;;;;;;5072006;28;20182;-68
2022/02/02 11:47:40;;;;;;;9.20;3.10;;;18.30;54.20;;;;;;5071571;28;20182;-70
2022/02/02 11:50:07;;;;;;;8.27;2.65;;;18.40;54.20;;;;;;5071352;28;20170;-70
2022/02/02 11:52:38;;;;;;;5.47;2.90;;;18.40;54.20;;;;;;5071001;28;20267;-64
2022/02/02 11:55:06;;;;;;;12.63;3.42;;;18.40;54.30;;;;;;5071406;28;20206;-64
2022/02/02 11:57:54;;;;;;;6.75;2.95;;;18.40;54.40;;;;;;5071088;28;20178;-64
2022/02/02 12:08:10;;;;;;;8.52;3.28;;;18.30;54.80;;;;;;5070590;28;20729;-63
2022/02/02 12:57:21;;;;;;;9.10;2.88;;;18.10;55.20;;;;;;5074117;28;20181;-64
2022/02/02 13:02:16;;;;;;;6.97;2.65;;;18.00;55.20;;;;;;5094710;28;20166;-66
2022/02/02 13:04:44;;;;;;;6.75;2.53;;;18.00;55.20;;;;;;5094380;28;20254;-66
2022/02/02 13:07:10;;;;;;;6.38;2.55;;;17.90;55.30;;;;;;5094736;28;20170;-65
2022/02/02 13:09:36;;;;;;;4.88;2.38;;;17.90;55.30;;;;;;5082044;28;20175;-65
2022/02/02 13:12:22;;;;;;;8.15;3.03;;;17.90;55.30;;;;;;5056339;28;20194;-64
2022/02/02 13:15:15;;;;;;;8.82;2.88;;;17.90;55.20;;;;;;5074862;28;20210;-63
2022/02/02 13:17:44;;;;;;;9.95;2.75;;;17.90;55.20;;;;;;5073862;28;20262;-65
2022/02/02 13:20:13;;;;;;;7.28;3.17;;;18.00;55.20;;;;;;5074260;28;20257;-65
2022/02/02 13:22:40;;;;;;;5.97;2.78;;;18.00;55.00;;;;;;5074509;28;20182;-65
2022/02/02 13:25:28;;;;;;;8.73;2.70;;;18.00;55.00;;;;;;5039236;28;20180;-65
2022/02/02 13:27:54;;;;;;;5.20;2.25;;;18.00;54.90;;;;;;5073994;28;20189;-65
2022/02/02 13:30:54;;;;;;;5.63;2.58;;;18.00;55.20;;;;;;5074447;28;20167;-66
2022/02/02 13:33:29;;;;;;;7.95;2.97;;;18.10;54.90;;;;;;5031372;28;20240;-66
2022/02/02 13:36:18;;;;;;;5.88;2.30;;;18.10;54.90;;;;;;5073790;28;20629;-65
2022/02/02 13:48:00;;;;;;;4.53;1.90;;;18.20;55.10;;;;;;5094173;28;20257;-66
2022/02/02 13:50:58;;;;;;;5.18;2.28;;;18.10;55.00;;;;;;5075599;28;20566;-65
2022/02/02 14:01:45;;;;;;;5.15;2.53;;;18.30;54.90;;;;;;5073876;28;20158;-66
2022/02/02 14:07:26;;;;;;;6.18;2.17;;;18.40;54.70;;;;;;5072788;28;20228;-66
2022/02/02 14:31:36;;;;;;;4.53;2.50;;;18.50;54.20;;;;;;5073366;28;20173;-65
2022/02/02 14:34:01;;;;;;;5.78;2.35;;;18.50;54.20;;;;;;5066402;28;20302;-66
2022/02/02 14:36:32;;;;;;;3.35;1.73;;;18.60;54.20;;;;;;5053169;28;20262;-65
2022/02/02 14:39:11;;;;;;;3.60;2.25;;;18.50;54.20;;;;;;5052956;28;20183;-65
2022/02/02 14:41:41;;;;;;;4.60;1.98;;;18.60;54.20;;;;;;5052623;28;20175;-65
2022/02/02 14:44:31;;;;;;;5.05;2.35;;;18.50;54.10;;;;;;5067922;28;20174;-65
2022/02/02 14:47:23;;;;;;;3.60;2.13;;;18.50;54.10;;;;;;5072632;28;20520;-64
2022/02/02 14:50:12;;;;;;;4.70;2.38;;;18.50;54.00;;;;;;5071522;28;20186;-64
2022/02/02 14:55:28;;;;;;;4.32;2.00;;;18.50;54.00;;;;;;5072627;28;20724;-65
2022/02/02 15:06:50;;;;;;;3.53;2.05;;;18.50;54.20;;;;;;5072541;28;20224;-65
2022/02/02 15:28:16;;;;;;;4.30;1.88;;;18.20;54.80;;;;;;5010123;28;20180;-65
2022/02/02 15:33:21;;;;;;;4.80;2.00;;;18.10;54.50;;;;;;5071864;28;20615;-66
2022/02/02 15:35:48;;;;;;;4.72;2.17;;;18.00;54.60;;;;;;5052269;28;20187;-65
2022/02/02 15:38:22;;;;;;;3.97;2.00;;;18.00;54.70;;;;;;5051108;28;20176;-65
2022/02/02 15:40:54;;;;;;;3.28;1.75;;;17.90;55.30;;;;;;5052013;28;20174;-65
2022/02/02 15:43:37;;;;;;;3.85;1.60;;;17.90;54.80;;;;;;5060406;28;20221;-65
2022/02/02 16:00:06;;;;;;;5.20;2.10;;;17.70;55.70;;;;;;5071249;28;20174;-67
2022/02/02 16:05:15;;;;;;;4.70;2.20;;;17.60;55.10;;;;;;5042859;28;20182;-67
2022/02/02 16:07:43;;;;;;;4.63;2.13;;;17.60;55.10;;;;;;5060831;28;20657;-65
2022/02/02 16:10:15;;;;;;;5.30;2.13;;;17.60;55.10;;;;;;5058496;28;20178;-67
2022/02/02 16:12:44;;;;;;;4.22;1.88;;;17.60;55.30;;;;;;5061398;28;20186;-66
2022/02/02 16:17:58;;;;;;;4.00;1.90;;;17.60;55.30;;;;;;5060951;28;20178;-66
2022/02/02 16:36:46;;;;;;;4.65;2.22;;;17.70;55.30;;;;;;5061725;28;20165;-67
2022/02/02 16:39:16;;;;;;;4.25;1.90;;;17.70;55.30;;;;;;5059262;28;20170;-67
2022/02/02 16:44:25;;;;;;;3.47;1.90;;;17.60;55.30;;;;;;5061484;28;20175;-68
2022/02/02 16:46:52;;;;;;;5.55;2.08;;;17.60;55.40;;;;;;5061217;28;20194;-68
2022/02/02 16:49:18;;;;;;;3.05;1.65;;;17.60;55.40;;;;;;5053092;28;20525;-65
2022/02/02 16:51:43;;;;;;;4.13;1.92;;;17.60;55.50;;;;;;5051106;28;20171;-61
2022/02/02 16:54:17;;;;;;;3.92;1.73;;;17.60;55.70;;;;;;5050869;28;20567;-60
2022/02/02 17:32:03;;;;;;;5.30;2.10;;;17.60;54.90;;;;;;5054278;28;20156;-60
2022/02/02 17:37:09;;;;;;;5.82;2.30;;;17.60;55.00;;;;;;5073943;28;20308;-61
2022/02/02 17:39:45;;;;;;;5.13;2.45;;;17.60;55.20;;;;;;5074481;28;20178;-61
2022/02/02 17:56:23;;;;;;;6.65;2.85;;;17.70;55.10;;;;;;5053943;28;20167;-62
2022/02/02 18:19:19;;;;;;;4.47;2.47;;;18.80;53.40;;;;;;5053303;28;20186;-63
2022/02/02 18:21:45;;;;;;;4.68;2.45;;;18.90;53.40;;;;;;5053552;28;20171;-63
2022/02/02 18:24:41;;;;;;;3.90;2.60;;;18.90;53.30;;;;;;5053156;28;20221;-61
2022/02/02 18:27:03;;;;;;;4.53;2.25;;;19.00;53.20;;;;;;5052172;28;20270;-62
2022/02/02 18:29:50;;;;;;;4.95;2.30;;;18.90;53.20;;;;;;5053523;28;20179;-61
2022/02/02 18:34:53;;;;;;;3.67;2.38;;;19.00;53.10;;;;;;5063506;28;20194;-61
2022/02/02 18:41:17;;;;;;;4.97;2.83;;;19.10;53.10;;;;;;5072305;28;20228;-62
2022/02/02 18:43:23;;;;;;;4.22;2.22;;;19.00;53.10;;;;;;5066518;28;20252;-61
2022/02/02 18:48:24;;;;;;;3.40;2.15;;;19.00;53.00;;;;;;5052185;28;20224;-62
2022/02/02 19:15:41;;;;;;;2.65;1.92;;;18.70;53.80;;;;;;5052727;28;20218;-63
2022/02/02 20:01:47;;;;;;;4.22;2.92;;;18.60;54.60;;;;;;5033429;28;20549;-64
2022/02/02 20:09:50;;;;;;;4.25;2.38;;;18.60;54.60;;;;;;5051702;28;20182;-61
2022/02/02 20:11:32;;;;;;;5.05;2.42;;;18.60;54.60;;;;;;5037711;28;20187;-62
2022/02/02 20:13:57;;;;;;;3.40;2.13;;;18.60;54.60;;;;;;5051143;28;20568;-62
2022/02/02 20:16:23;;;;;;;5.28;2.42;;;18.60;54.70;;;;;;5051662;28;20171;-63
2022/02/02 20:18:51;;;;;;;4.85;2.42;;;18.50;54.70;;;;;;5050928;28;20297;-62
2022/02/02 20:21:21;;;;;;;3.35;2.22;;;18.50;54.80;;;;;;5051369;28;20178;-62
2022/02/02 20:23:49;;;;;;;4.80;2.40;;;18.50;54.90;;;;;;5051737;28;20241;-62
2022/02/02 20:26:17;;;;;;;3.38;2.17;;;18.50;54.80;;;;;;5050571;28;20530;-61
2022/02/02 20:28:43;;;;;;;3.15;2.03;;;18.50;54.80;;;;;;5051488;28;20597;-61
2022/02/02 20:31:08;;;;;;;4.43;2.15;;;18.60;54.80;;;;;;5051568;28;20191;-61
2022/02/02 20:33:34;;;;;;;3.92;2.55;;;18.50;54.70;;;;;;5052406;28;20217;-60
2022/02/02 20:35:59;;;;;;;3.13;2.03;;;18.60;54.80;;;;;;5071367;28;20178;-60
2022/02/02 20:38:26;;;;;;;3.40;2.13;;;18.60;54.70;;;;;;5071389;28;20171;-60
2022/02/02 20:40:51;;;;;;;2.92;2.08;;;18.50;54.70;;;;;;5070800;28;20179;-62
2022/02/02 20:43:34;;;;;;;2.78;2.08;;;18.50;54.80;;;;;;5062501;28;20183;-61
2022/02/02 21:07:53;;;;;;;4.32;2.08;;;18.40;55.00;;;;;;5055191;28;20217;-61
2022/02/02 21:10:24;;;;;;;2.53;2.25;;;18.40;55.10;;;;;;5054952;28;20618;-61
2022/02/02 21:15:36;;;;;;;3.58;2.10;;;18.40;55.30;;;;;;5054490;28;20228;-62
2022/02/02 21:18:11;;;;;;;3.92;2.13;;;18.40;55.20;;;;;;5054592;28;20167;-61
2022/02/02 21:20:47;;;;;;;3.33;2.15;;;18.40;55.20;;;;;;5054699;28;20209;-61
2022/02/02 21:23:29;;;;;;;3.65;2.35;;;18.40;55.20;;;;;;5053821;28;20249;-61
2022/02/02 21:28:29;;;;;;;3.65;2.00;;;18.40;55.10;;;;;;5054842;28;20703;-60
2022/02/02 21:30:55;;;;;;;2.88;1.83;;;18.40;55.20;;;;;;5053352;28;20198;-60
2022/02/02 21:33:20;;;;;;;2.50;2.25;;;18.40;55.20;;;;;;5054032;28;20634;-60
2022/02/02 21:35:47;;;;;;;2.97;2.60;;;18.30;55.20;;;;;;5065167;28;20183;-62
2022/02/02 21:38:20;;;;;;;3.72;2.55;;;18.30;55.30;;;;;;5067275;28;20171;-60
2022/02/02 21:40:51;;;;;;;2.90;2.00;;;18.30;55.30;;;;;;5074241;28;20170;-61
2022/02/02 21:43:16;;;;;;;4.10;2.00;;;18.30;55.30;;;;;;5064897;28;20249;-61
2022/02/02 21:45:42;;;;;;;3.17;2.47;;;18.30;55.30;;;;;;5053853;28;20203;-61
2022/02/02 21:48:07;;;;;;;4.13;2.38;;;18.30;55.40;;;;;;5053680;28;20175;-61
2022/02/02 21:50:45;;;;;;;2.88;1.95;;;18.30;55.40;;;;;;5053212;28;20645;-61
2022/02/02 21:53:10;;;;;;;3.65;2.55;;;18.30;55.40;;;;;;5053497;28;20233;-61
2022/02/02 21:55:36;;;;;;;3.75;2.22;;;18.20;55.40;;;;;;5053811;28;20180;-61
2022/02/02 21:58:02;;;;;;;2.58;2.17;;;18.20;55.50;;;;;;5051999;28;20177;-60
2022/02/02 22:00:27;;;;;;;3.00;1.92;;;18.20;56.10;;;;;;5053871;28;20250;-61
2022/02/02 22:02:53;;;;;;;2.92;2.00;;;18.20;55.60;;;;;;5053534;28;20221;-60
2022/02/02 22:05:19;;;;;;;3.47;2.03;;;18.20;55.60;;;;;;5053243;28;20179;-60
2022/02/02 22:07:45;;;;;;;4.13;2.53;;;18.10;55.70;;;;;;5053784;28;20179;-61
2022/02/02 22:10:10;;;;;;;3.35;2.35;;;18.10;55.70;;;;;;5053369;28;20182;-61
2022/02/02 22:12:38;;;;;;;2.92;2.20;;;18.10;55.70;;;;;;5052883;28;20167;-62
2022/02/02 22:15:09;;;;;;;2.10;1.90;;;18.10;55.70;;;;;;5053319;28;20211;-62
2022/02/02 22:17:34;;;;;;;2.85;1.95;;;18.00;55.70;;;;;;5053659;28;20254;-62
2022/02/02 22:20:05;;;;;;;2.83;2.22;;;18.00;55.80;;;;;;5052569;28;20182;-61
2022/02/02 22:22:30;;;;;;;2.92;2.35;;;17.90;55.80;;;;;;5053344;28;20642;-61
2022/02/02 22:24:56;;;;;;;4.20;2.10;;;17.90;55.80;;;;;;5053134;28;20270;-61
2022/02/02 22:27:21;;;;;;;2.42;2.22;;;17.90;55.90;;;;;;5052492;28;20228;-61
2022/02/02 22:29:47;;;;;;;2.78;1.90;;;17.80;56.00;;;;;;5053526;28;20175;-61
2022/02/02 22:32:12;;;;;;;4.45;2.70;;;17.80;55.90;;;;;;5052393;28;20206;-60
2022/02/02 22:34:38;;;;;;;2.85;2.17;;;17.80;55.90;;;;;;5063871;28;20241;-60
2022/02/02 22:37:04;;;;;;;4.10;2.33;;;17.80;56.00;;;;;;5072931;28;20174;-61
2022/02/02 22:39:29;;;;;;;3.55;2.28;;;17.80;56.00;;;;;;5072117;28;20722;-60
2022/02/02 22:41:56;;;;;;;2.60;2.10;;;17.70;55.90;;;;;;5072694;28;20182;-60
2022/02/02 22:44:22;;;;;;;2.05;1.85;;;17.70;56.00;;;;;;5055995;28;20213;-61
2022/02/02 22:46:47;;;;;;;2.80;2.17;;;17.70;56.00;;;;;;5052608;28;20582;-60
2022/02/02 22:49:13;;;;;;;4.32;2.50;;;17.70;56.00;;;;;;5052784;28;20175;-61
2022/02/02 22:51:38;;;;;;;3.58;2.15;;;17.60;55.90;;;;;;5052877;28;20256;-61
2022/02/02 22:54:04;;;;;;;3.72;2.35;;;17.60;56.00;;;;;;5051529;28;20251;-62
2022/02/02 22:56:30;;;;;;;3.25;2.33;;;17.60;56.00;;;;;;5052665;28;20185;-61
2022/02/02 22:58:57;;;;;;;4.50;2.42;;;17.60;56.00;;;;;;5052333;28;20169;-60
2022/02/02 23:01:25;;;;;;;2.88;2.15;;;17.60;56.00;;;;;;5052064;28;20262;-60
2022/02/02 23:03:52;;;;;;;2.90;2.38;;;17.60;56.00;;;;;;5052771;28;20642;-60
2022/02/02 23:06:18;;;;;;;3.40;2.65;;;17.60;56.00;;;;;;5052932;28;20182;-60
2022/02/02 23:08:43;;;;;;;4.50;2.60;;;17.50;56.00;;;;;;5052078;28;20242;-60
2022/02/02 23:11:09;;;;;;;2.45;2.25;;;17.50;56.00;;;;;;5051304;28;20544;-62
2022/02/02 23:13:34;;;;;;;2.80;2.28;;;17.50;56.00;;;;;;5052532;28;20214;-63
2022/02/02 23:18:32;;;;;;;6.95;2.65;;;17.50;56.00;;;;;;5052404;28;20174;-62
2022/02/02 23:21:01;;;;;;;3.10;2.58;;;17.50;56.00;;;;;;5052021;28;20658;-62